Wenden, Arizona
Current Conditions -  °F | °C
As of 4:55 AM on Friday 24 Oct 2014 (Local Time) from KBXK Reporting Station
NA  
Wind Chill: 15°   Ceiling: NA
Heat Index: 15°   Visibility: 9mi
Dew Point:   Wind: 6mph
Humidity: 55%   Direction: 340°NNW
Pressure: 30"   Gusts: NA
Location:  33.82°N, 113.54°W
Report Text: KBXK 241155Z AUTO 34005KT 9SM 15/06 A3000 RMK AO1
Loading
Personal Weather Stations






























Interactive Weather Map
Tropical Storm Tracking
New forecast layout! Learn more

10-Day Weather Forecast

Advertisements
Track Severe Weather on mobile